createdAt,value
2022-11-15T00:00:52.008Z,5.39
2022-11-15T00:03:21.475Z,5.40
2022-11-15T00:05:48.487Z,5.37
2022-11-15T00:08:15.164Z,5.39
2022-11-15T00:10:41.786Z,5.35
2022-11-15T00:13:09.729Z,5.44
2022-11-15T00:15:37.535Z,5.29
2022-11-15T00:18:05.724Z,5.28
2022-11-15T00:20:34.649Z,5.28
2022-11-15T00:23:01.149Z,5.36
2022-11-15T00:25:28.307Z,5.33
2022-11-15T00:27:58.636Z,5.36
2022-11-15T00:30:25.760Z,5.35
2022-11-15T00:32:52.348Z,5.30
2022-11-15T00:35:20.247Z,5.34
2022-11-15T00:37:48.497Z,5.38
2022-11-15T00:40:16.163Z,5.44
2022-11-15T00:42:42.910Z,5.45
2022-11-15T00:45:10.487Z,5.37
2022-11-15T00:47:37.063Z,5.36
2022-11-15T00:50:04.192Z,5.47
2022-11-15T00:52:30.745Z,5.43
2022-11-15T00:54:57.391Z,5.46
2022-11-15T00:57:23.933Z,5.46
2022-11-15T00:59:50.479Z,5.47
2022-11-15T01:02:17.043Z,5.51
2022-11-15T01:04:43.609Z,5.47
2022-11-15T01:07:10.233Z,5.57
2022-11-15T01:09:36.905Z,5.57
2022-11-15T01:12:03.699Z,5.48
2022-11-15T01:14:30.243Z,5.54
2022-11-15T01:16:56.778Z,5.59
2022-11-15T01:19:23.358Z,5.59
2022-11-15T01:21:51.217Z,5.53
2022-11-15T01:24:18.221Z,5.55
2022-11-15T01:26:44.901Z,5.54
2022-11-15T01:29:11.492Z,5.58
2022-11-15T01:31:38.111Z,5.62
2022-11-15T01:34:04.674Z,5.65
2022-11-15T01:36:31.241Z,5.66
2022-11-15T01:38:59.231Z,5.66
2022-11-15T01:41:32.369Z,5.71
2022-11-15T01:44:37.339Z,5.53
2022-11-15T01:47:10.091Z,5.63
2022-11-15T01:49:40.381Z,5.56
2022-11-15T01:52:11.527Z,5.58
2022-11-15T01:54:38.140Z,5.47
2022-11-15T01:57:10.868Z,5.56
2022-11-15T01:59:40.918Z,5.49
2022-11-15T02:02:07.575Z,5.46
2022-11-15T02:04:38.963Z,5.49
2022-11-15T02:07:08.058Z,5.47
2022-11-15T02:09:36.709Z,5.37
2022-11-15T02:12:03.730Z,5.39
2022-11-15T02:14:32.271Z,5.30
2022-11-15T02:17:26.564Z,5.32
2022-11-15T02:20:26.509Z,5.32
2022-11-15T02:23:02.122Z,5.28
2022-11-15T02:25:28.623Z,5.29
2022-11-15T02:28:07.641Z,5.29
2022-11-15T02:30:42.538Z,5.21
2022-11-15T02:33:32.036Z,5.18
2022-11-15T02:36:01.024Z,5.17
2022-11-15T02:38:39.523Z,5.26
2022-11-15T02:41:14.275Z,5.20
2022-11-15T02:43:58.713Z,5.21
2022-11-15T02:46:56.099Z,5.23
2022-11-15T02:49:26.178Z,5.23
2022-11-15T02:51:55.813Z,5.19
2022-11-15T02:54:29.687Z,5.19
2022-11-15T02:57:02.098Z,5.33
2022-11-15T03:00:04.678Z,5.34
2022-11-15T03:02:33.858Z,5.44
2022-11-15T03:05:28.416Z,5.34
2022-11-15T03:08:18.888Z,5.19
2022-11-15T03:11:12.375Z,5.28
2022-11-15T03:14:01.525Z,5.27
2022-11-15T03:16:48.906Z,5.24
2022-11-15T03:19:30.122Z,5.32
2022-11-15T03:21:59.486Z,5.22
2022-11-15T03:24:28.096Z,5.17
2022-11-15T03:26:56.925Z,5.15
2022-11-15T03:29:33.565Z,5.15
2022-11-15T03:32:03.757Z,5.11
2022-11-15T03:34:35.195Z,5.13
2022-11-15T03:37:02.663Z,5.20
2022-11-15T03:39:30.240Z,5.20
2022-11-15T03:42:25.593Z,5.19
2022-11-15T03:44:52.081Z,5.21
2022-11-15T03:47:25.462Z,5.15
2022-11-15T03:50:02.244Z,5.28
2022-11-15T03:52:34.293Z,5.21
2022-11-15T03:55:03.048Z,5.21
2022-11-15T03:57:29.715Z,5.24
2022-11-15T03:59:56.246Z,5.22
2022-11-15T04:02:22.906Z,5.26
2022-11-15T04:04:49.439Z,5.14
2022-11-15T04:07:16.041Z,5.22
2022-11-15T04:10:01.865Z,5.29
2022-11-15T04:12:34.755Z,5.27
2022-11-15T04:15:09.806Z,5.16
2022-11-15T04:17:41.073Z,5.29
2022-11-15T04:20:30.071Z,5.32
2022-11-15T04:23:16.993Z,5.27
2022-11-15T04:25:44.911Z,5.21
2022-11-15T04:28:12.973Z,5.14
2022-11-15T04:30:39.875Z,5.15
2022-11-15T04:33:06.749Z,5.23
2022-11-15T04:35:33.526Z,5.27
2022-11-15T04:38:00.421Z,5.43
2022-11-15T04:40:27.076Z,5.41
2022-11-15T04:42:53.622Z,5.37
2022-11-15T04:45:20.514Z,5.29
2022-11-15T04:47:47.731Z,5.28
2022-11-15T04:50:15.343Z,5.30
2022-11-15T04:52:52.332Z,5.29
2022-11-15T04:55:19.010Z,5.34
2022-11-15T04:57:45.492Z,5.38
2022-11-15T05:00:16.946Z,5.33
2022-11-15T05:03:02.351Z,5.35
2022-11-15T05:05:28.982Z,5.38
2022-11-15T05:07:55.499Z,5.36
2022-11-15T05:10:22.339Z,5.45
2022-11-15T05:12:49.463Z,5.58
2022-11-15T05:15:16.364Z,5.64
2022-11-15T05:17:42.911Z,5.61
2022-11-15T05:20:10.107Z,5.61
2022-11-15T05:22:36.801Z,5.69
2022-11-15T05:25:03.796Z,5.72
2022-11-15T05:27:30.279Z,5.63
2022-11-15T05:29:56.801Z,5.70
2022-11-15T05:32:23.380Z,5.57
2022-11-15T05:34:50.045Z,5.49
2022-11-15T05:37:17.773Z,5.46
2022-11-15T05:39:44.376Z,5.40
2022-11-15T05:42:14.131Z,5.37
2022-11-15T05:44:44.835Z,5.47
2022-11-15T05:47:13.837Z,5.49
2022-11-15T05:49:45.007Z,5.44
2022-11-15T05:52:16.056Z,5.45
2022-11-15T05:54:43.273Z,5.26
2022-11-15T05:57:09.988Z,5.29
2022-11-15T05:59:37.179Z,5.53
2022-11-15T06:02:03.861Z,5.37
2022-11-15T06:04:30.503Z,5.45
2022-11-15T06:06:59.244Z,5.35
2022-11-15T06:09:25.786Z,5.30
2022-11-15T06:11:52.305Z,5.47
2022-11-15T06:14:18.811Z,5.51
2022-11-15T06:16:45.340Z,5.39
2022-11-15T06:19:11.893Z,5.42
2022-11-15T06:21:38.415Z,5.39
2022-11-15T06:24:06.374Z,5.46
2022-11-15T06:26:33.022Z,5.42
2022-11-15T06:28:59.579Z,5.32
2022-11-15T06:31:26.135Z,5.18
2022-11-15T06:33:52.628Z,5.15
2022-11-15T06:36:19.474Z,5.15
2022-11-15T06:38:46.207Z,5.24
2022-11-15T06:41:13.902Z,5.24
2022-11-15T06:43:41.177Z,5.39
2022-11-15T06:46:08.608Z,5.23
2022-11-15T06:48:35.865Z,5.23
2022-11-15T06:51:03.821Z,5.26
2022-11-15T06:53:31.389Z,5.27
2022-11-15T06:56:06.262Z,5.33
2022-11-15T06:58:33.081Z,5.10
2022-11-15T07:01:05.951Z,5.31
2022-11-15T07:03:33.316Z,5.28
2022-11-15T07:06:05.761Z,5.88
2022-11-15T07:08:34.088Z,5.55
2022-11-15T07:11:03.265Z,5.50
2022-11-15T07:13:34.683Z,5.39
2022-11-15T07:16:09.257Z,5.41
2022-11-15T07:18:37.359Z,5.32
2022-11-15T07:21:05.919Z,5.46
2022-11-15T07:23:33.166Z,5.30
2022-11-15T07:26:00.415Z,5.28
2022-11-15T07:28:27.662Z,5.45
2022-11-15T07:30:54.823Z,5.43
2022-11-15T07:33:21.628Z,5.45
2022-11-15T07:35:51.266Z,5.31
2022-11-15T07:38:20.690Z,5.24
2022-11-15T07:40:47.974Z,5.26
2022-11-15T07:43:14.657Z,5.30
2022-11-15T07:45:45.765Z,5.33
2022-11-15T07:48:12.653Z,5.40
2022-11-15T07:50:43.206Z,5.49
2022-11-15T07:53:10.767Z,5.43
2022-11-15T07:55:38.041Z,5.48
2022-11-15T07:58:06.653Z,5.57
2022-11-15T08:00:34.191Z,5.48
2022-11-15T08:03:16.108Z,5.45
2022-11-15T08:05:44.069Z,5.20
2022-11-15T08:08:12.005Z,5.40
2022-11-15T08:10:40.779Z,5.45
2022-11-15T08:13:10.080Z,5.38
2022-11-15T08:15:37.945Z,5.42
2022-11-15T08:18:13.033Z,5.44
2022-11-15T08:20:39.769Z,5.50
2022-11-15T08:23:11.238Z,5.44
2022-11-15T08:25:38.457Z,5.50
2022-11-15T08:28:07.301Z,5.53
2022-11-15T08:30:43.926Z,5.62
2022-11-15T08:33:14.499Z,5.58
2022-11-15T08:35:43.058Z,5.50
2022-11-15T08:38:10.064Z,5.37
2022-11-15T08:40:36.861Z,5.42
2022-11-15T08:43:04.026Z,5.62
2022-11-15T08:45:31.462Z,5.51
2022-11-15T08:47:58.384Z,5.37
2022-11-15T08:50:25.037Z,5.33
2022-11-15T08:52:51.647Z,5.20
2022-11-15T08:55:18.178Z,5.19
2022-11-15T08:57:45.225Z,5.39
2022-11-15T09:00:13.299Z,5.59
2022-11-15T09:02:40.777Z,5.60
2022-11-15T09:05:08.591Z,5.52
2022-11-15T09:07:35.346Z,5.37
2022-11-15T09:10:01.901Z,5.27
2022-11-15T09:12:28.591Z,5.49
2022-11-15T09:14:55.739Z,5.51
2022-11-15T09:17:24.980Z,5.58
2022-11-15T09:19:52.069Z,5.77
2022-11-15T09:22:19.875Z,5.88
2022-11-15T09:24:46.481Z,5.74
2022-11-15T09:27:14.317Z,5.91
2022-11-15T09:29:41.234Z,5.82
2022-11-15T09:32:07.740Z,5.83
2022-11-15T09:34:34.402Z,5.75
2022-11-15T09:37:00.942Z,5.81
2022-11-15T09:39:27.486Z,5.86
2022-11-15T09:42:36.148Z,5.80
2022-11-15T09:45:12.079Z,5.76
2022-11-15T09:48:17.492Z,5.86
2022-11-15T09:50:51.829Z,5.82
2022-11-15T09:53:57.601Z,5.97
2022-11-15T09:56:23.225Z,6.01
2022-11-15T09:59:07.252Z,5.77
2022-11-15T10:01:40.078Z,5.97
2022-11-15T10:04:10.743Z,5.89
2022-11-15T10:06:47.184Z,5.90
2022-11-15T10:09:45.414Z,5.84
2022-11-15T10:12:14.789Z,6.01
2022-11-15T10:14:42.464Z,6.05
2022-11-15T10:17:23.979Z,5.97
2022-11-15T10:20:11.502Z,6.10
2022-11-15T10:22:41.025Z,5.95
2022-11-15T10:25:10.369Z,5.96
2022-11-15T10:27:37.391Z,6.14
2022-11-15T10:30:05.510Z,6.00
2022-11-15T10:32:37.419Z,5.93
2022-11-15T10:35:20.691Z,6.12
2022-11-15T10:37:47.449Z,5.86
2022-11-15T10:40:19.615Z,5.97
2022-11-15T10:42:46.656Z,6.06
2022-11-15T10:45:30.173Z,6.35
2022-11-15T10:48:14.828Z,6.21
2022-11-15T10:50:43.682Z,6.27
2022-11-15T10:53:37.991Z,6.31
2022-11-15T10:56:09.384Z,6.18
2022-11-15T10:58:42.272Z,6.16
2022-11-15T11:01:16.400Z,6.16
2022-11-15T11:03:45.364Z,6.07
2022-11-15T11:06:18.009Z,6.07
2022-11-15T11:09:04.369Z,6.07
2022-11-15T11:11:49.338Z,6.12
2022-11-15T11:14:28.360Z,6.15
2022-11-15T11:17:14.502Z,6.17
2022-11-15T11:20:14.807Z,6.10
2022-11-15T11:23:04.966Z,6.22
2022-11-15T11:25:37.312Z,6.14
2022-11-15T11:28:17.907Z,6.16
2022-11-15T11:31:05.445Z,6.19
2022-11-15T11:33:37.619Z,6.22
2022-11-15T11:36:30.257Z,6.21
2022-11-15T11:39:07.158Z,6.29
2022-11-15T11:41:40.752Z,6.35
2022-11-15T11:44:19.267Z,6.31
2022-11-15T11:47:05.342Z,6.36
2022-11-15T11:49:35.582Z,6.12
2022-11-15T15:31:25.627Z,5.97
2022-11-15T15:33:52.140Z,6.00
2022-11-15T15:36:19.797Z,5.79
2022-11-15T15:38:47.692Z,5.47
2022-11-15T15:41:17.882Z,5.28
2022-11-15T15:43:45.009Z,5.43
2022-11-15T15:46:17.812Z,5.76
2022-11-15T15:48:45.308Z,5.61
2022-11-15T15:51:18.690Z,5.73
2022-11-15T15:53:47.526Z,5.64
2022-11-15T15:56:14.043Z,5.44
2022-11-15T15:58:40.648Z,5.41
2022-11-15T16:01:07.275Z,5.26
2022-11-15T16:03:34.060Z,5.26
2022-11-15T16:06:00.775Z,5.26
2022-11-15T16:08:31.933Z,5.13
2022-11-15T16:11:07.275Z,5.13
2022-11-15T16:13:33.779Z,5.11
2022-11-15T16:16:01.354Z,5.04
2022-11-15T16:18:27.970Z,4.93
2022-11-15T16:20:57.711Z,4.85
2022-11-15T16:23:25.596Z,4.81
2022-11-15T16:25:56.479Z,4.79
2022-11-15T16:28:32.627Z,4.83
2022-11-15T16:31:05.858Z,4.64
2022-11-15T16:33:33.749Z,4.62
2022-11-15T16:36:00.942Z,4.72
2022-11-15T16:38:27.473Z,4.73
2022-11-15T16:40:54.017Z,4.78
2022-11-15T16:43:20.595Z,4.78
2022-11-15T16:45:47.190Z,4.84
2022-11-15T16:48:26.067Z,4.82
2022-11-15T16:50:57.553Z,4.84
2022-11-15T16:53:25.030Z,4.73
2022-11-15T16:55:51.576Z,4.67
2022-11-15T16:58:18.149Z,4.72
2022-11-15T17:00:44.792Z,4.73
2022-11-15T17:03:12.058Z,4.66
2022-11-15T17:05:38.614Z,4.58
2022-11-15T17:08:05.139Z,4.47
2022-11-15T17:10:31.740Z,4.53
2022-11-15T17:12:58.286Z,4.59
2022-11-15T17:15:25.579Z,4.45
2022-11-15T17:17:54.020Z,4.43
2022-11-15T17:20:23.919Z,4.47
2022-11-15T17:22:50.641Z,4.49
2022-11-15T17:25:17.833Z,4.43
2022-11-15T17:27:44.473Z,4.40
2022-11-15T17:30:15.559Z,4.50
2022-11-15T17:32:43.603Z,4.51
2022-11-15T17:35:15.362Z,4.52
2022-11-15T17:37:42.532Z,4.54
2022-11-15T17:40:09.948Z,4.44
2022-11-15T17:42:36.518Z,4.36
2022-11-15T17:45:09.299Z,4.28
2022-11-15T17:47:36.087Z,4.16
2022-11-15T17:50:05.222Z,4.44
2022-11-15T17:52:31.772Z,4.34
2022-11-15T17:54:58.317Z,4.43
2022-11-15T17:57:24.815Z,4.39
2022-11-15T17:59:51.356Z,4.21
2022-11-15T18:02:18.013Z,4.29
2022-11-15T18:04:44.588Z,4.28
2022-11-15T18:07:12.416Z,4.22
2022-11-15T18:09:42.374Z,4.13
2022-11-15T18:12:09.394Z,4.17
2022-11-15T18:14:35.916Z,4.19
2022-11-15T18:17:02.715Z,4.21
2022-11-15T18:19:29.204Z,4.27
2022-11-15T18:22:04.390Z,4.23
2022-11-15T18:24:35.554Z,4.12
2022-11-15T18:27:04.379Z,4.22
2022-11-15T18:29:32.589Z,4.38
2022-11-15T18:31:59.461Z,4.19
2022-11-15T18:34:33.565Z,4.18
2022-11-15T18:37:01.269Z,4.22
2022-11-15T18:39:27.809Z,4.31
2022-11-15T18:41:54.636Z,4.20
2022-11-15T18:44:21.740Z,4.17
2022-11-15T18:46:48.708Z,4.16
2022-11-15T18:49:20.559Z,4.11
2022-11-15T18:51:48.631Z,4.09
2022-11-15T18:54:16.718Z,4.24
2022-11-15T18:56:47.235Z,4.17
2022-11-15T18:59:14.449Z,4.10
2022-11-15T19:01:47.946Z,4.01
2022-11-15T19:04:18.573Z,4.03
2022-11-15T19:06:47.997Z,4.10
2022-11-15T19:09:16.948Z,4.13
2022-11-15T19:11:45.429Z,4.10
2022-11-15T19:14:17.262Z,4.04
2022-11-15T19:16:55.282Z,4.01
2022-11-15T19:19:24.559Z,4.01
2022-11-15T19:21:52.063Z,3.94
2022-11-15T19:24:19.062Z,3.98
2022-11-15T19:26:46.386Z,3.97
2022-11-15T19:29:17.374Z,3.99
2022-11-15T19:31:45.120Z,3.87
2022-11-15T19:34:12.936Z,3.85
2022-11-15T19:36:41.884Z,3.78
2022-11-15T19:39:13.348Z,3.83
2022-11-15T19:41:50.137Z,3.83
2022-11-15T19:44:16.772Z,3.90
2022-11-15T19:46:44.387Z,3.83
2022-11-15T19:49:11.544Z,3.82
2022-11-15T19:51:39.145Z,3.82
2022-11-15T19:54:10.126Z,3.84
2022-11-15T19:56:37.500Z,3.90
2022-11-15T19:59:05.583Z,3.87
2022-11-15T20:01:36.385Z,3.86
2022-11-15T20:04:03.313Z,3.99
2022-11-15T20:06:34.923Z,3.98
2022-11-15T20:09:01.813Z,3.85
2022-11-15T20:11:28.646Z,3.78
2022-11-15T20:14:00.465Z,3.79
2022-11-15T20:16:27.019Z,3.92
2022-11-15T20:18:53.999Z,4.05
2022-11-15T20:21:21.971Z,3.97
2022-11-15T20:23:51.947Z,4.14
2022-11-15T20:26:19.441Z,4.01
2022-11-15T20:28:46.499Z,4.00
2022-11-15T20:31:13.252Z,3.91
2022-11-15T20:33:40.148Z,3.91
2022-11-15T20:36:09.650Z,3.91
2022-11-15T20:38:36.552Z,3.91
2022-11-15T20:41:03.352Z,3.87
2022-11-15T20:43:29.861Z,3.87
2022-11-15T20:45:56.545Z,3.84
2022-11-15T20:48:23.209Z,3.87
2022-11-15T20:50:49.740Z,3.86
2022-11-15T20:53:18.683Z,3.83
2022-11-15T20:55:48.172Z,3.81
2022-11-15T20:58:15.723Z,3.78
2022-11-15T21:00:43.313Z,3.82
2022-11-15T21:03:10.397Z,3.75
2022-11-15T21:05:41.504Z,3.88
2022-11-15T21:08:09.520Z,3.89
2022-11-15T21:10:54.618Z,3.93
2022-11-15T21:13:21.597Z,3.99
2022-11-15T21:15:48.141Z,4.02
2022-11-15T21:18:15.279Z,4.02
2022-11-15T21:20:42.412Z,4.00
2022-11-15T21:23:08.950Z,4.04
2022-11-15T21:25:36.912Z,4.08
2022-11-15T21:28:03.661Z,4.11
2022-11-15T21:30:30.635Z,3.96
2022-11-15T21:32:57.307Z,3.93
2022-11-15T21:35:24.210Z,4.09
2022-11-15T21:37:56.517Z,4.09
2022-11-15T21:40:24.451Z,4.02
2022-11-15T21:42:51.097Z,3.91
2022-11-15T21:45:17.629Z,4.04
2022-11-15T21:47:46.374Z,3.91
2022-11-15T21:50:13.518Z,3.93
2022-11-15T21:52:40.851Z,4.09
2022-11-15T21:55:08.303Z,4.09
2022-11-15T21:57:34.851Z,4.27
2022-11-15T22:00:20.094Z,4.16
2022-11-15T22:02:46.655Z,4.04
2022-11-15T22:05:13.254Z,4.04
2022-11-15T22:07:39.841Z,4.09
2022-11-15T22:10:07.171Z,4.04
2022-11-15T22:12:33.755Z,4.04
2022-11-15T22:15:00.442Z,4.28
2022-11-15T22:17:46.998Z,4.24
2022-11-15T22:20:37.788Z,4.19
2022-11-15T22:23:01.683Z,4.36
2022-11-15T22:25:28.716Z,4.27
2022-11-15T22:27:55.366Z,4.27
2022-11-15T22:30:23.163Z,4.16
2022-11-15T22:32:49.788Z,4.07
2022-11-15T22:35:16.783Z,4.07
2022-11-15T22:37:43.524Z,4.22
2022-11-15T22:40:10.600Z,4.28
2022-11-15T22:42:37.209Z,4.19
2022-11-15T22:45:04.332Z,4.16
2022-11-15T22:47:30.959Z,4.09
2022-11-15T22:49:58.061Z,4.12
2022-11-15T22:52:24.799Z,4.15
2022-11-15T22:54:51.582Z,4.10
2022-11-15T22:57:18.354Z,4.14
2022-11-15T22:59:45.110Z,4.09
2022-11-15T23:02:11.828Z,4.11
2022-11-15T23:04:38.460Z,4.20
2022-11-15T23:07:05.220Z,4.12
2022-11-15T23:09:31.909Z,4.16
2022-11-15T23:12:17.444Z,4.22
2022-11-15T23:14:44.051Z,4.19
2022-11-15T23:17:10.660Z,4.07
2022-11-15T23:19:37.347Z,4.30
2022-11-15T23:22:22.434Z,4.23
2022-11-15T23:24:49.262Z,4.17
2022-11-15T23:27:20.024Z,4.28
2022-11-15T23:30:05.587Z,4.22
2022-11-15T23:32:51.011Z,4.15
2022-11-15T23:35:17.680Z,4.19
2022-11-15T23:37:44.580Z,4.22
2022-11-15T23:40:12.094Z,4.19
2022-11-15T23:42:38.702Z,4.16
2022-11-15T23:45:06.314Z,4.25
2022-11-15T23:47:32.998Z,4.30
2022-11-15T23:49:59.640Z,4.36
2022-11-15T23:52:26.490Z,4.32
2022-11-15T23:54:53.110Z,4.43
2022-11-15T23:57:20.306Z,4.32
2022-11-15T23:59:47.764Z,4.30
